NCAR-RAP Real-Time Weather Data

Output produced by METARs form (10 April 2020  07:24 UTC)
found at http://weather.rap.ucar.edu/surface/
 
KSYR 100719Z 26013KT 6SM -SN BKN024 OVC033 02/M02 A2929 RMK AO2 GSB06E17 P0001 T00171017 $